createdAt,value
2017-10-30T00:01:29.378Z,73.50
2017-10-30T00:03:57.751Z,73.50
2017-10-30T00:06:26.136Z,73.40
2017-10-30T00:08:54.571Z,73.50
2017-10-30T00:11:22.921Z,73.00
2017-10-30T00:13:51.315Z,73.10
2017-10-30T00:16:19.668Z,73.30
2017-10-30T00:18:48.018Z,73.30
2017-10-30T00:21:16.414Z,73.10
2017-10-30T00:23:45.714Z,72.80
2017-10-30T00:26:14.058Z,73.80
2017-10-30T00:28:44.042Z,72.90
2017-10-30T00:31:12.394Z,72.80
2017-10-30T00:33:40.748Z,73.00
2017-10-30T00:36:09.127Z,73.30
2017-10-30T00:38:37.482Z,73.60
2017-10-30T00:41:06.598Z,73.80
2017-10-30T00:43:35.003Z,73.70
2017-10-30T00:46:03.354Z,73.60
2017-10-30T00:48:32.737Z,73.50
2017-10-30T00:51:01.893Z,73.30
2017-10-30T00:53:30.254Z,73.40
2017-10-30T00:55:58.615Z,73.40
2017-10-30T00:58:28.099Z,73.70
2017-10-30T01:00:56.447Z,73.70
2017-10-30T01:03:25.839Z,74.00
2017-10-30T01:05:54.212Z,74.20
2017-10-30T01:08:23.517Z,74.00
2017-10-30T01:10:53.202Z,74.00
2017-10-30T01:13:21.634Z,74.00
2017-10-30T01:15:50.753Z,73.50
2017-10-30T01:18:19.950Z,73.50
2017-10-30T01:20:48.298Z,73.50
2017-10-30T01:23:17.415Z,73.70
2017-10-30T01:25:45.809Z,73.60
2017-10-30T01:28:14.164Z,73.70
2017-10-30T01:30:43.280Z,73.30
2017-10-30T01:33:12.803Z,73.20
2017-10-30T01:35:41.154Z,72.90
2017-10-30T01:38:09.579Z,73.10
2017-10-30T01:40:37.979Z,73.10
2017-10-30T01:43:07.120Z,74.40
2017-10-30T01:45:35.470Z,73.60
2017-10-30T01:48:04.522Z,73.90
2017-10-30T01:50:32.876Z,74.00
2017-10-30T01:53:04.374Z,74.00
2017-10-30T01:55:32.852Z,74.10
2017-10-30T01:58:00.524Z,74.10
2017-10-30T02:00:28.441Z,74.00
2017-10-30T02:02:56.823Z,73.90
2017-10-30T02:05:25.169Z,74.50
2017-10-30T02:07:54.517Z,73.70
2017-10-30T02:10:22.903Z,73.90
2017-10-30T02:12:51.250Z,74.00
2017-10-30T02:15:19.600Z,73.90
2017-10-30T02:17:47.991Z,73.90
2017-10-30T02:20:15.466Z,73.80
2017-10-30T02:22:43.475Z,74.10
2017-10-30T02:25:12.296Z,73.90
2017-10-30T02:27:39.956Z,73.90
2017-10-30T02:30:07.617Z,73.80
2017-10-30T02:32:37.324Z,73.90
2017-10-30T02:35:04.984Z,73.90
2017-10-30T02:37:34.089Z,73.80
2017-10-30T02:40:02.007Z,74.40
2017-10-30T02:42:29.699Z,73.90
2017-10-30T02:44:57.558Z,74.40
2017-10-30T02:47:27.442Z,73.90
2017-10-30T02:49:55.447Z,73.90
2017-10-30T02:52:23.130Z,73.90
2017-10-30T02:54:51.139Z,73.90
2017-10-30T02:57:18.852Z,73.90
2017-10-30T02:59:46.519Z,73.90
2017-10-30T03:02:14.904Z,74.20
2017-10-30T03:04:43.256Z,74.10
2017-10-30T03:07:10.929Z,74.20
2017-10-30T03:09:38.627Z,74.30
2017-10-30T03:12:07.638Z,73.90
2017-10-30T03:14:35.301Z,74.00
2017-10-30T03:17:03.855Z,74.10
2017-10-30T03:19:31.327Z,74.20
2017-10-30T03:22:01.066Z,74.00
2017-10-30T03:24:29.545Z,74.20
2017-10-30T03:27:01.945Z,74.00
2017-10-30T03:29:29.645Z,73.90
2017-10-30T03:32:01.958Z,74.40
2017-10-30T03:34:31.111Z,74.40
2017-10-30T03:36:59.548Z,74.40
2017-10-30T03:39:28.151Z,74.50
2017-10-30T03:41:57.563Z,74.20
2017-10-30T03:44:25.915Z,74.20
2017-10-30T03:46:54.346Z,74.10
2017-10-30T03:49:22.374Z,74.40
2017-10-30T03:51:50.722Z,74.40
2017-10-30T03:54:19.883Z,74.30
2017-10-30T03:56:48.947Z,74.20
2017-10-30T03:59:16.955Z,74.30
2017-10-30T04:01:47.120Z,74.70
2017-10-30T04:04:15.280Z,74.80
2017-10-30T04:06:45.667Z,74.80
2017-10-30T04:09:14.038Z,74.40
2017-10-30T04:11:43.346Z,74.40
2017-10-30T04:14:11.723Z,74.30
2017-10-30T04:16:40.095Z,74.30
2017-10-30T04:19:08.448Z,74.40
2017-10-30T04:21:38.818Z,74.80
2017-10-30T04:24:07.954Z,74.60
2017-10-30T04:26:36.303Z,74.70
2017-10-30T04:29:05.450Z,74.60
2017-10-30T04:31:33.802Z,74.60
2017-10-30T04:34:02.163Z,74.60
2017-10-30T04:36:31.315Z,74.90
2017-10-30T04:38:59.671Z,74.80
2017-10-30T04:41:30.050Z,74.80
2017-10-30T04:43:59.199Z,74.90
2017-10-30T04:46:30.623Z,74.90
2017-10-30T04:48:59.015Z,74.90
2017-10-30T04:51:27.370Z,74.90
2017-10-30T04:53:55.714Z,75.00
2017-10-30T04:56:24.895Z,75.40
2017-10-30T04:58:53.283Z,74.80
2017-10-30T05:01:21.644Z,74.70
2017-10-30T05:03:50.254Z,74.70
2017-10-30T05:06:19.393Z,74.50
2017-10-30T05:08:48.026Z,74.40
2017-10-30T05:11:16.644Z,74.20
2017-10-30T05:13:44.998Z,74.00
2017-10-30T05:16:15.218Z,74.40
2017-10-30T05:18:44.370Z,74.50
2017-10-30T05:21:15.802Z,74.60
2017-10-30T05:23:44.174Z,74.40
2017-10-30T05:26:12.570Z,74.50
2017-10-30T05:28:40.923Z,74.50
2017-10-30T05:31:09.301Z,74.30
2017-10-30T05:33:37.678Z,74.40
2017-10-30T05:36:06.123Z,74.60
2017-10-30T05:38:34.474Z,74.70
2017-10-30T05:41:04.095Z,74.90
2017-10-30T05:43:32.478Z,74.80
2017-10-30T05:46:00.880Z,74.60
2017-10-30T05:48:30.000Z,74.60
2017-10-30T05:50:59.388Z,74.70
2017-10-30T05:53:27.790Z,74.70
2017-10-30T05:55:56.151Z,74.60
2017-10-30T05:58:24.503Z,74.70
2017-10-30T06:00:53.647Z,74.60
2017-10-30T06:03:22.028Z,74.60
2017-10-30T06:05:51.460Z,74.80
2017-10-30T06:08:19.808Z,74.80
2017-10-30T06:10:48.182Z,74.70
2017-10-30T06:13:16.567Z,74.70
2017-10-30T06:15:44.924Z,74.60
2017-10-30T06:18:13.271Z,74.60
2017-10-30T06:20:42.431Z,75.40
2017-10-30T06:23:10.787Z,75.30
2017-10-30T06:25:39.988Z,75.00
2017-10-30T06:28:08.377Z,74.90
2017-10-30T06:30:36.732Z,74.50
2017-10-30T06:33:05.083Z,74.90
2017-10-30T06:35:33.468Z,75.00
2017-10-30T06:38:01.845Z,74.80
2017-10-30T06:40:30.186Z,74.60
2017-10-30T06:42:58.226Z,74.90
2017-10-30T06:45:26.618Z,74.90
2017-10-30T06:47:54.979Z,74.80
2017-10-30T06:50:24.103Z,74.70
2017-10-30T06:52:54.287Z,74.70
2017-10-30T06:55:24.661Z,74.70
2017-10-30T06:57:53.263Z,74.80
2017-10-30T07:00:22.659Z,74.90
2017-10-30T07:02:58.986Z,74.80
2017-10-30T07:05:27.363Z,74.80
2017-10-30T07:07:55.861Z,74.70
2017-10-30T07:10:24.217Z,74.50
2017-10-30T07:12:54.383Z,74.70
2017-10-30T07:15:22.187Z,74.60
2017-10-30T07:17:50.194Z,74.60
2017-10-30T07:20:19.311Z,75.20
2017-10-30T07:22:47.772Z,74.70
2017-10-30T07:25:16.892Z,75.00
2017-10-30T07:27:44.952Z,75.00
2017-10-30T07:30:13.930Z,75.10
2017-10-30T07:32:42.519Z,75.10
2017-10-30T07:35:12.863Z,75.20
2017-10-30T07:37:41.215Z,75.30
2017-10-30T07:40:10.331Z,75.50
2017-10-30T07:42:38.719Z,75.50
2017-10-30T07:45:07.074Z,75.30
2017-10-30T07:47:35.339Z,75.40
2017-10-30T07:50:04.504Z,75.10
2017-10-30T07:52:32.164Z,75.10
2017-10-30T07:54:59.826Z,75.50
2017-10-30T07:57:28.636Z,75.50
2017-10-30T07:59:56.296Z,75.80
2017-10-30T08:02:23.960Z,75.40
2017-10-30T08:04:52.376Z,75.70
2017-10-30T08:07:20.043Z,75.30
2017-10-30T08:09:48.044Z,75.00
2017-10-30T08:12:16.094Z,75.20
2017-10-30T08:14:44.992Z,75.20
2017-10-30T08:17:12.998Z,75.20
2017-10-30T08:19:40.711Z,74.70
2017-10-30T08:22:08.380Z,74.80
2017-10-30T08:24:37.066Z,75.30
2017-10-30T08:27:05.036Z,75.30
2017-10-30T08:29:32.695Z,75.10
2017-10-30T08:32:00.380Z,75.10
2017-10-30T08:34:28.078Z,75.00
2017-10-30T08:36:55.743Z,75.00
2017-10-30T08:39:23.756Z,75.20
2017-10-30T08:41:51.547Z,75.00
2017-10-30T08:44:20.339Z,75.20
2017-10-30T08:46:48.046Z,75.20
2017-10-30T08:49:17.250Z,75.10
2017-10-30T08:51:45.611Z,75.30
2017-10-30T08:54:13.314Z,75.50
2017-10-30T08:56:40.975Z,75.60
2017-10-30T08:59:08.638Z,75.60
2017-10-30T09:01:36.330Z,75.60
2017-10-30T09:04:05.801Z,75.50
2017-10-30T09:06:34.151Z,75.50
2017-10-30T09:09:02.847Z,75.50
2017-10-30T09:11:30.319Z,75.60
2017-10-30T09:13:57.979Z,75.40
2017-10-30T09:16:25.663Z,75.40
2017-10-30T09:18:55.318Z,75.30
2017-10-30T09:21:23.366Z,75.20
2017-10-30T09:23:51.786Z,75.20
2017-10-30T09:26:19.796Z,75.10
2017-10-30T09:28:47.595Z,75.00
2017-10-30T09:31:15.251Z,75.00
2017-10-30T09:33:42.918Z,75.10
2017-10-30T09:36:10.612Z,75.00
2017-10-30T09:38:38.626Z,75.10
2017-10-30T09:41:07.058Z,75.00
2017-10-30T09:43:35.528Z,74.90
2017-10-30T09:46:03.530Z,74.90
2017-10-30T09:48:31.549Z,74.90
2017-10-30T09:50:59.259Z,74.80
2017-10-30T09:53:26.922Z,74.80
2017-10-30T09:55:54.587Z,74.80
2017-10-30T09:58:22.404Z,74.70
2017-10-30T10:00:50.068Z,74.70
2017-10-30T10:03:18.786Z,74.80
2017-10-30T10:05:47.036Z,74.70
2017-10-30T10:08:14.521Z,74.90
2017-10-30T10:10:42.039Z,74.90
2017-10-30T10:13:09.741Z,75.10
2017-10-30T10:15:38.168Z,75.00
2017-10-30T10:18:06.175Z,74.80
2017-10-30T10:20:35.138Z,75.00
2017-10-30T10:23:03.143Z,75.30
2017-10-30T10:25:31.152Z,75.20
2017-10-30T10:27:58.838Z,75.20
2017-10-30T10:30:26.884Z,74.70
2017-10-30T10:32:54.891Z,74.30
2017-10-30T10:35:22.556Z,74.50
2017-10-30T10:37:50.594Z,74.70
2017-10-30T10:40:18.264Z,74.10
2017-10-30T10:42:46.271Z,74.10
2017-10-30T10:45:13.994Z,74.00
2017-10-30T10:47:42.004Z,73.90
2017-10-30T10:50:11.000Z,74.40
2017-10-30T10:52:39.380Z,74.50
2017-10-30T10:55:09.806Z,74.50
2017-10-30T10:57:40.602Z,74.20
2017-10-30T11:00:15.730Z,74.60
2017-10-30T11:02:43.788Z,74.60
2017-10-30T11:05:13.160Z,75.10
2017-10-30T11:07:41.516Z,75.00
2017-10-30T11:10:10.801Z,75.10
2017-10-30T11:12:39.914Z,74.80
2017-10-30T11:15:08.631Z,74.80
2017-10-30T11:17:37.103Z,75.10
2017-10-30T11:20:05.460Z,75.00
2017-10-30T11:22:33.826Z,75.10
2017-10-30T11:25:02.801Z,74.70
2017-10-30T11:27:31.156Z,74.80
2017-10-30T11:30:03.467Z,75.50
2017-10-30T11:32:31.819Z,75.70
2017-10-30T11:35:00.176Z,75.80
2017-10-30T11:37:28.611Z,75.70
2017-10-30T11:39:56.980Z,76.40
2017-10-30T11:42:25.324Z,75.80
2017-10-30T11:44:53.714Z,75.50
2017-10-30T11:47:21.723Z,75.50
2017-10-30T11:49:53.823Z,75.10
2017-10-30T11:52:22.186Z,75.10
2017-10-30T11:54:56.813Z,75.10
2017-10-30T11:57:25.164Z,75.10
2017-10-30T11:59:53.519Z,75.30
2017-10-30T12:02:21.899Z,75.10
2017-10-30T12:04:50.256Z,75.40
2017-10-30T12:07:18.643Z,75.40
2017-10-30T12:09:46.995Z,75.50
2017-10-30T12:12:15.377Z,75.50
2017-10-30T12:14:44.728Z,75.80
2017-10-30T12:17:13.110Z,76.10
2017-10-30T12:19:41.461Z,75.90
2017-10-30T12:22:09.819Z,76.20
2017-10-30T12:24:43.347Z,75.80
2017-10-30T12:27:11.706Z,75.90
2017-10-30T12:29:43.138Z,76.40
2017-10-30T12:32:11.486Z,76.30
2017-10-30T12:34:41.906Z,75.70
2017-10-30T12:37:10.882Z,75.40
2017-10-30T12:39:39.754Z,75.40
2017-10-30T12:42:08.113Z,75.30
2017-10-30T12:44:44.152Z,75.70
2017-10-30T12:47:12.539Z,75.70
2017-10-30T12:49:42.325Z,75.90
2017-10-30T12:52:10.679Z,75.80
2017-10-30T12:54:40.623Z,75.50
2017-10-30T12:57:09.900Z,75.70
2017-10-30T12:59:41.123Z,75.60
2017-10-30T13:02:09.725Z,75.60
2017-10-30T13:04:37.748Z,75.60
2017-10-30T13:07:06.132Z,75.60
2017-10-30T13:09:34.552Z,75.80
2017-10-30T13:12:02.560Z,76.30
2017-10-30T13:14:38.538Z,75.90
2017-10-30T13:17:06.902Z,76.30
2017-10-30T13:19:52.642Z,75.90
2017-10-30T13:22:20.654Z,75.60
2017-10-30T13:24:48.721Z,75.50
2017-10-30T13:27:17.375Z,76.20
2017-10-30T13:29:56.826Z,75.70
2017-10-30T13:32:25.327Z,75.50
2017-10-30T13:34:57.230Z,75.40
2017-10-30T13:37:25.710Z,75.50
2017-10-30T13:39:54.974Z,75.50
2017-10-30T13:42:23.280Z,75.50
2017-10-30T13:44:51.711Z,75.30
2017-10-30T13:47:20.065Z,75.60
2017-10-30T13:49:49.192Z,76.30
2017-10-30T13:52:17.559Z,75.50
2017-10-30T13:54:45.915Z,75.50
2017-10-30T13:57:15.083Z,75.80
2017-10-30T13:59:43.441Z,75.80
2017-10-30T14:02:11.800Z,75.70
2017-10-30T14:04:40.184Z,76.30
2017-10-30T14:10:01.735Z,76.00
2017-10-30T14:12:32.061Z,76.30
2017-10-30T14:15:00.422Z,76.10
2017-10-30T14:17:28.829Z,75.90
2017-10-30T14:19:57.343Z,75.90
2017-10-30T14:22:25.952Z,75.80
2017-10-30T14:24:55.075Z,75.70
2017-10-30T14:27:36.412Z,75.70
2017-10-30T14:30:04.842Z,76.00
2017-10-30T14:32:32.508Z,76.00
2017-10-30T14:35:00.515Z,75.90
2017-10-30T14:37:28.203Z,76.00
2017-10-30T14:39:55.864Z,75.90
2017-10-30T14:42:24.639Z,76.00
2017-10-30T14:44:54.069Z,76.00
2017-10-30T14:47:21.732Z,75.90
2017-10-30T14:49:49.439Z,75.50
2017-10-30T14:52:17.099Z,74.80
2017-10-30T14:54:45.715Z,74.90
2017-10-30T14:57:14.161Z,74.40
2017-10-30T14:59:41.824Z,74.40
2017-10-30T15:02:09.523Z,73.40
2017-10-30T15:04:37.958Z,74.60
2017-10-30T15:07:06.302Z,74.60
2017-10-30T15:09:35.331Z,74.60
2017-10-30T15:12:03.688Z,74.40
2017-10-30T15:14:32.039Z,74.20
2017-10-30T15:17:00.427Z,74.40
2017-10-30T15:19:28.779Z,74.70
2017-10-30T15:21:57.211Z,73.90
2017-10-30T15:24:25.242Z,73.90
2017-10-30T15:26:53.610Z,74.30
2017-10-30T15:29:22.319Z,74.30
2017-10-30T15:31:50.702Z,74.70
2017-10-30T15:34:18.706Z,74.80
2017-10-30T15:36:46.367Z,74.60
2017-10-30T15:39:14.420Z,74.20
2017-10-30T15:41:42.424Z,74.50
2017-10-30T15:44:11.539Z,74.70
2017-10-30T15:46:40.019Z,74.70
2017-10-30T15:49:08.372Z,74.70
2017-10-30T15:51:36.724Z,74.20
2017-10-30T15:54:05.356Z,74.40
2017-10-30T15:56:33.407Z,74.60
2017-10-30T15:59:06.276Z,74.80
2017-10-30T16:01:34.642Z,74.80
2017-10-30T16:04:03.023Z,74.40
2017-10-30T16:06:31.182Z,74.60
2017-10-30T16:09:03.241Z,74.90
2017-10-30T16:11:31.639Z,75.00
2017-10-30T16:13:59.996Z,74.90
2017-10-30T16:16:28.344Z,74.80
2017-10-30T16:18:56.731Z,74.00
2017-10-30T16:21:25.083Z,74.20
2017-10-30T16:23:54.205Z,74.40
2017-10-30T16:26:22.586Z,74.30
2017-10-30T16:28:50.944Z,74.10
2017-10-30T16:31:19.290Z,74.60
2017-10-30T16:33:47.739Z,74.40
2017-10-30T16:36:16.091Z,73.90
2017-10-30T16:38:43.780Z,74.50
2017-10-30T16:41:12.475Z,74.30
2017-10-30T16:43:43.760Z,73.90
2017-10-30T16:46:13.624Z,74.20
2017-10-30T16:48:41.628Z,74.10
2017-10-30T16:51:10.074Z,74.10
2017-10-30T16:53:38.423Z,74.10
2017-10-30T16:56:06.241Z,74.60
2017-10-30T16:58:37.688Z,74.90
2017-10-30T17:01:05.732Z,75.10
2017-10-30T17:03:34.083Z,75.10
2017-10-30T17:06:02.430Z,75.40
2017-10-30T17:08:31.575Z,75.50
2017-10-30T17:10:59.929Z,75.50
2017-10-30T17:13:28.310Z,75.30
2017-10-30T17:15:56.664Z,75.60
2017-10-30T17:18:25.784Z,75.80
2017-10-30T17:20:54.284Z,75.80
2017-10-30T17:23:22.635Z,75.50
2017-10-30T17:25:50.977Z,75.80
2017-10-30T17:28:20.504Z,75.80
2017-10-30T17:30:48.855Z,75.90
2017-10-30T17:33:17.202Z,75.90
2017-10-30T17:35:45.591Z,75.80
2017-10-30T17:38:13.938Z,75.80
2017-10-30T17:40:42.291Z,76.00
2017-10-30T17:43:10.679Z,76.20
2017-10-30T17:45:39.026Z,75.70
2017-10-30T17:48:09.131Z,75.90
2017-10-30T17:50:37.172Z,75.90
2017-10-30T17:53:05.527Z,76.40
2017-10-30T17:55:33.878Z,75.90
2017-10-30T17:58:03.023Z,76.00
2017-10-30T18:00:31.378Z,76.00
2017-10-30T18:03:01.751Z,76.10
2017-10-30T18:05:30.138Z,75.90
2017-10-30T18:07:59.263Z,76.20
2017-10-30T18:10:27.618Z,76.10
2017-10-30T18:12:56.759Z,76.10
2017-10-30T18:15:25.158Z,76.00
2017-10-30T18:17:53.512Z,76.20
2017-10-30T18:20:21.870Z,76.20
2017-10-30T18:22:51.156Z,76.20
2017-10-30T18:25:19.509Z,75.90
2017-10-30T18:27:47.871Z,76.30
2017-10-30T18:30:16.270Z,76.10
2017-10-30T18:32:46.371Z,76.40
2017-10-30T18:35:14.723Z,76.40
2017-10-30T18:37:43.131Z,76.40
2017-10-30T18:40:11.488Z,75.70
2017-10-30T18:42:39.843Z,75.90
2017-10-30T18:45:08.227Z,75.90
2017-10-30T18:47:36.573Z,75.90
2017-10-30T18:50:04.930Z,75.90
2017-10-30T18:52:33.678Z,76.10
2017-10-30T18:55:02.035Z,76.60
2017-10-30T18:57:30.387Z,75.80
2017-10-30T18:59:59.542Z,75.80
2017-10-30T19:02:29.872Z,75.80
2017-10-30T19:04:58.227Z,76.10
2017-10-30T19:07:26.613Z,76.30
2017-10-30T19:09:54.963Z,76.00
2017-10-30T19:12:25.335Z,76.30
2017-10-30T19:14:53.712Z,76.10
2017-10-30T19:17:22.082Z,76.10
2017-10-30T19:19:50.585Z,75.80
2017-10-30T19:22:20.681Z,76.10
2017-10-30T19:24:49.033Z,76.20
2017-10-30T19:27:17.423Z,75.90
2017-10-30T19:29:46.039Z,75.80
2017-10-30T19:32:14.967Z,75.90
2017-10-30T19:34:43.346Z,75.80
2017-10-30T19:37:11.710Z,75.70
2017-10-30T19:39:40.206Z,76.10
2017-10-30T19:42:09.493Z,75.80
2017-10-30T19:44:37.855Z,75.40
2017-10-30T19:47:08.012Z,75.10
2017-10-30T19:49:36.363Z,75.10
2017-10-30T19:52:05.770Z,75.40
2017-10-30T19:54:34.139Z,75.40
2017-10-30T19:57:02.534Z,75.40
2017-10-30T19:59:30.898Z,75.50
2017-10-30T20:02:01.307Z,75.40
2017-10-30T20:04:30.575Z,76.20
2017-10-30T20:10:19.178Z,76.00
2017-10-30T20:12:48.299Z,76.20
2017-10-30T20:15:16.657Z,76.10
2017-10-30T20:17:46.983Z,76.30
2017-10-30T20:20:15.330Z,76.20
2017-10-30T20:22:43.691Z,76.10
2017-10-30T20:25:12.067Z,75.30
2017-10-30T20:27:40.418Z,76.10
2017-10-30T20:30:08.791Z,76.10
2017-10-30T20:32:37.424Z,76.10
2017-10-30T20:35:07.518Z,76.10
2017-10-30T20:37:36.564Z,76.30
2017-10-30T20:40:05.922Z,76.70
2017-10-30T20:42:34.311Z,77.10
2017-10-30T20:45:03.787Z,76.90
2017-10-30T20:47:32.139Z,76.90
2017-10-30T20:50:00.455Z,76.70
2017-10-30T20:52:28.806Z,76.70
2017-10-30T20:54:57.160Z,76.70
2017-10-30T20:57:25.550Z,76.60
2017-10-30T20:59:53.902Z,76.50
2017-10-30T21:02:22.259Z,76.60
2017-10-30T21:04:50.657Z,76.40
2017-10-30T21:07:19.011Z,76.30
2017-10-30T21:09:48.297Z,76.40
2017-10-30T21:12:16.702Z,76.40
2017-10-30T21:14:49.759Z,76.40
2017-10-30T21:17:18.163Z,76.30
2017-10-30T21:19:47.285Z,76.20
2017-10-30T21:22:15.634Z,76.20
2017-10-30T21:24:44.791Z,76.60
2017-10-30T21:27:13.147Z,76.50
2017-10-30T21:29:41.532Z,76.30
2017-10-30T21:32:09.911Z,76.50
2017-10-30T21:34:39.386Z,76.90
2017-10-30T21:37:07.738Z,77.00
2017-10-30T21:39:38.901Z,77.20
2017-10-30T21:42:08.018Z,76.50
2017-10-30T21:44:36.379Z,76.50
2017-10-30T21:47:04.760Z,76.20
2017-10-30T21:49:37.595Z,76.00
2017-10-30T21:52:05.982Z,75.80
2017-10-30T21:54:34.354Z,76.20
2017-10-30T21:57:02.707Z,76.30
2017-10-30T21:59:33.091Z,76.70
2017-10-30T22:02:01.448Z,76.80
2017-10-30T22:04:30.562Z,77.20
2017-10-30T22:06:58.939Z,76.60
2017-10-30T22:09:28.311Z,76.60
2017-10-30T22:11:56.710Z,76.80
2017-10-30T22:14:25.838Z,76.90
2017-10-30T22:16:54.198Z,76.90
2017-10-30T22:19:22.570Z,77.70
2017-10-30T22:21:50.930Z,77.70
2017-10-30T22:24:22.097Z,77.30
2017-10-30T22:26:50.448Z,77.30
2017-10-30T22:29:20.555Z,77.50
2017-10-30T22:31:48.931Z,77.50
2017-10-30T22:34:17.284Z,76.80
2017-10-30T22:36:45.680Z,77.50
2017-10-30T22:39:14.030Z,77.50
2017-10-30T22:41:42.389Z,77.40
2017-10-30T22:44:10.754Z,77.40
2017-10-30T22:46:39.141Z,77.60
2017-10-30T22:49:07.495Z,77.90
2017-10-30T22:51:36.422Z,77.30
2017-10-30T22:54:05.916Z,77.40
2017-10-30T22:56:34.262Z,77.30
2017-10-30T22:59:04.359Z,77.30
2017-10-30T23:01:32.737Z,77.20
2017-10-30T23:04:03.054Z,78.00
2017-10-30T23:06:31.558Z,76.90
2017-10-30T23:09:00.691Z,76.90
2017-10-30T23:11:29.286Z,76.90
2017-10-30T23:13:58.652Z,76.90
2017-10-30T23:16:27.776Z,77.20
2017-10-30T23:18:56.123Z,77.20
2017-10-30T23:21:24.514Z,77.20
2017-10-30T23:23:52.872Z,77.20
2017-10-30T23:26:21.992Z,76.90
2017-10-30T23:28:50.367Z,77.00
2017-10-30T23:31:18.752Z,77.00
2017-10-30T23:33:47.384Z,77.00
2017-10-30T23:36:15.735Z,76.80
2017-10-30T23:38:45.092Z,76.80
2017-10-30T23:41:13.702Z,76.80
2017-10-30T23:43:42.054Z,77.30
2017-10-30T23:46:10.444Z,77.20
2017-10-30T23:48:38.800Z,77.50
2017-10-30T23:51:07.927Z,77.20
2017-10-30T23:53:36.322Z,77.20
2017-10-30T23:56:04.690Z,76.90
2017-10-30T23:58:33.043Z,77.10
